createdAt,value
2018-09-22T00:01:34.270Z,17.15
2018-09-22T00:04:02.911Z,17.19
2018-09-22T00:06:31.489Z,17.24
2018-09-22T00:09:00.639Z,17.31
2018-09-22T00:11:29.482Z,17.29
2018-09-22T00:13:58.060Z,17.30
2018-09-22T00:16:27.204Z,17.28
2018-09-22T00:18:55.857Z,17.33
2018-09-22T00:21:27.296Z,17.23
2018-09-22T00:23:55.904Z,17.31
2018-09-22T00:26:25.075Z,17.21
2018-09-22T00:28:53.735Z,17.23
2018-09-22T00:31:22.455Z,17.16
2018-09-22T00:33:51.031Z,17.14
2018-09-22T00:36:19.660Z,17.16
2018-09-22T00:38:48.399Z,17.05
2018-09-22T00:41:16.981Z,17.05
2018-09-22T00:43:45.615Z,17.04
2018-09-22T00:46:14.321Z,16.99
2018-09-22T00:48:42.905Z,17.00
2018-09-22T00:51:11.863Z,17.02
2018-09-22T00:53:40.527Z,17.04
2018-09-22T00:56:10.982Z,17.07
2018-09-22T00:58:39.599Z,17.05
2018-09-22T01:01:08.255Z,17.01
2018-09-22T01:03:36.838Z,17.02
2018-09-22T01:06:05.496Z,17.00
2018-09-22T01:08:34.781Z,16.97
2018-09-22T01:11:03.632Z,16.96
2018-09-22T01:13:32.536Z,16.94
2018-09-22T01:16:01.105Z,16.95
2018-09-22T01:18:29.680Z,16.89
2018-09-22T01:20:58.882Z,16.92
2018-09-22T01:23:27.456Z,16.91
2018-09-22T01:25:56.129Z,16.87
2018-09-22T01:28:25.607Z,16.80
2018-09-22T01:30:54.305Z,16.81
2018-09-22T01:33:22.889Z,16.83
2018-09-22T01:35:52.183Z,16.79
2018-09-22T01:38:20.848Z,16.77
2018-09-22T01:40:49.399Z,16.78
2018-09-22T01:43:18.064Z,16.76
2018-09-22T01:45:46.727Z,16.76
2018-09-22T01:48:16.040Z,16.75
2018-09-22T01:50:44.734Z,16.75
2018-09-22T01:53:13.828Z,16.78
2018-09-22T01:55:42.404Z,16.77
2018-09-22T01:58:11.638Z,16.67
2018-09-22T02:00:40.760Z,16.63
2018-09-22T02:03:09.340Z,16.58
2018-09-22T02:05:37.968Z,16.57
2018-09-22T02:08:06.658Z,16.55
2018-09-22T02:10:35.307Z,16.53
2018-09-22T02:13:04.947Z,16.59
2018-09-22T02:15:33.864Z,16.57
2018-09-22T02:18:02.429Z,16.54
2018-09-22T02:20:31.071Z,16.48
2018-09-22T02:22:59.640Z,16.49
2018-09-22T02:25:28.686Z,16.53
2018-09-22T02:27:57.366Z,16.53
2018-09-22T02:30:25.980Z,16.48
2018-09-22T02:32:54.544Z,16.44
2018-09-22T02:35:23.791Z,16.38
2018-09-22T02:37:52.370Z,16.29
2018-09-22T02:40:21.316Z,16.20
2018-09-22T02:42:50.267Z,16.17
2018-09-22T02:45:18.848Z,16.15
2018-09-22T02:47:47.447Z,16.18
2018-09-22T02:50:16.172Z,16.14
2018-09-22T02:52:45.437Z,16.08
2018-09-22T02:55:15.888Z,16.05
2018-09-22T02:57:44.940Z,15.99
2018-09-22T03:00:13.515Z,15.91
2018-09-22T03:02:42.136Z,15.94
2018-09-22T03:05:10.742Z,15.97
2018-09-22T03:07:39.322Z,15.97
2018-09-22T03:10:08.052Z,16.00
2018-09-22T03:12:36.682Z,16.03
2018-09-22T03:15:06.351Z,15.98
2018-09-22T03:17:35.196Z,15.94
2018-09-22T03:20:04.573Z,15.98
2018-09-22T03:22:33.172Z,16.04
2018-09-22T03:25:01.778Z,16.08
2018-09-22T03:27:30.415Z,16.12
2018-09-22T03:29:59.048Z,16.16
2018-09-22T03:32:28.077Z,16.15
2018-09-22T03:34:56.664Z,16.16
2018-09-22T03:37:25.268Z,16.19
2018-09-22T03:39:53.935Z,16.13
2018-09-22T03:42:22.892Z,16.10
2018-09-22T03:44:51.476Z,16.08
2018-09-22T03:47:20.148Z,16.03
2018-09-22T03:49:48.736Z,16.00
2018-09-22T03:52:17.723Z,15.96
2018-09-22T03:54:46.423Z,15.97
2018-09-22T03:57:15.016Z,15.97
2018-09-22T03:59:43.599Z,15.93
2018-09-22T04:02:12.543Z,15.86
2018-09-22T04:04:41.131Z,15.80
2018-09-22T04:07:09.706Z,15.74
2018-09-22T04:09:38.668Z,15.74
2018-09-22T04:12:07.303Z,15.71
2018-09-22T04:14:35.871Z,15.74
2018-09-22T04:17:04.496Z,15.74
2018-09-22T04:19:33.100Z,15.76
2018-09-22T04:22:01.699Z,15.77
2018-09-22T04:24:30.877Z,15.78
2018-09-22T04:26:59.456Z,15.74
2018-09-22T04:29:28.028Z,15.73
2018-09-22T04:31:56.659Z,15.69
2018-09-22T04:34:25.288Z,15.69
2018-09-22T04:36:53.874Z,15.70
2018-09-22T04:39:23.290Z,15.71
2018-09-22T04:41:51.944Z,15.71
2018-09-22T04:44:20.533Z,15.68
2018-09-22T04:46:49.151Z,15.70
2018-09-22T04:49:17.739Z,15.72
2018-09-22T04:51:46.337Z,15.75
2018-09-22T04:54:14.959Z,15.70
2018-09-22T04:56:43.563Z,15.69
2018-09-22T04:59:12.143Z,15.63
2018-09-22T05:01:40.780Z,15.55
2018-09-22T05:04:09.355Z,15.50
2018-09-22T05:06:37.941Z,15.47
2018-09-22T05:09:09.934Z,15.37
2018-09-22T05:11:38.891Z,15.28
2018-09-22T05:14:07.503Z,15.24
2018-09-22T05:16:36.516Z,15.20
2018-09-22T05:19:05.229Z,15.15
2018-09-22T05:21:33.824Z,15.16
2018-09-22T05:24:02.587Z,15.21
2018-09-22T05:26:31.163Z,15.24
2018-09-22T05:28:59.768Z,15.23
2018-09-22T05:31:28.399Z,15.22
2018-09-22T05:33:56.993Z,15.24
2018-09-22T05:36:25.573Z,15.27
2018-09-22T05:38:54.317Z,15.29
2018-09-22T05:41:22.920Z,15.29
2018-09-22T05:43:51.501Z,15.27
2018-09-22T05:46:20.160Z,15.29
2018-09-22T05:48:48.737Z,15.27
2018-09-22T05:51:17.324Z,15.31
2018-09-22T05:53:46.340Z,15.26
2018-09-22T05:56:14.944Z,15.22
2018-09-22T05:58:43.591Z,15.16
2018-09-22T06:01:12.322Z,15.15
2018-09-22T06:03:40.967Z,15.17
2018-09-22T06:06:09.530Z,15.21
2018-09-22T06:08:38.216Z,15.27
2018-09-22T06:11:07.008Z,15.25
2018-09-22T06:13:35.588Z,15.28
2018-09-22T06:16:04.207Z,15.17
2018-09-22T06:18:32.795Z,15.24
2018-09-22T06:21:01.377Z,15.26
2018-09-22T06:23:30.105Z,15.29
2018-09-22T06:25:58.696Z,15.31
2018-09-22T06:28:27.712Z,15.38
2018-09-22T06:30:56.341Z,15.50
2018-09-22T06:33:25.153Z,15.61
2018-09-22T06:35:53.728Z,15.68
2018-09-22T06:38:22.404Z,15.74
2018-09-22T06:40:51.978Z,15.80
2018-09-22T06:43:20.564Z,15.94
2018-09-22T06:45:49.264Z,16.13
2018-09-22T06:48:17.888Z,16.36
2018-09-22T06:50:46.472Z,16.44
2018-09-22T06:53:15.159Z,16.48
2018-09-22T06:55:43.772Z,16.51
2018-09-22T06:58:12.355Z,16.66
2018-09-22T07:00:41.024Z,16.92
2018-09-22T07:03:09.600Z,17.10
2018-09-22T07:05:38.219Z,17.18
2018-09-22T07:08:06.846Z,17.39
2018-09-22T07:10:35.411Z,17.60
2018-09-22T07:13:04.068Z,17.71
2018-09-22T07:15:32.731Z,17.65
2018-09-22T07:18:01.316Z,17.49
2018-09-22T07:20:29.905Z,17.36
2018-09-22T07:23:04.395Z,16.96
2018-09-22T07:25:32.979Z,16.88
2018-09-22T07:28:01.551Z,16.89
2018-09-22T07:30:30.180Z,16.89
2018-09-22T07:32:58.788Z,17.02
2018-09-22T07:35:27.381Z,17.12
2018-09-22T07:37:56.247Z,17.22
2018-09-22T07:40:24.868Z,17.35
2018-09-22T07:42:53.479Z,16.89
2018-09-22T07:45:22.166Z,16.87
2018-09-22T07:47:50.744Z,16.97
2018-09-22T07:50:19.329Z,16.94
2018-09-22T07:52:47.985Z,16.98
2018-09-22T07:55:16.660Z,17.13
2018-09-22T07:57:45.236Z,17.15
2018-09-22T08:00:13.863Z,17.33
2018-09-22T08:02:42.430Z,17.16
2018-09-22T08:05:11.008Z,17.24
2018-09-22T08:07:39.707Z,17.34
2018-09-22T08:10:08.297Z,17.71
2018-09-22T08:12:36.892Z,17.93
2018-09-22T08:15:05.961Z,17.88
2018-09-22T08:17:34.553Z,17.87
2018-09-22T08:20:03.172Z,18.38
2018-09-22T08:22:31.918Z,18.62
2018-09-22T08:25:00.497Z,18.89
2018-09-22T08:27:29.579Z,19.09
2018-09-22T08:29:58.280Z,19.07
2018-09-22T08:32:26.851Z,18.87
2018-09-22T08:34:55.448Z,18.53
2018-09-22T08:37:24.365Z,18.59
2018-09-22T08:39:53.026Z,18.81
2018-09-22T08:42:21.644Z,19.00
2018-09-22T08:44:50.429Z,19.02
2018-09-22T08:47:18.979Z,18.98
2018-09-22T08:49:47.580Z,19.14
2018-09-22T08:52:16.281Z,19.26
2018-09-22T08:54:44.880Z,19.36
2018-09-22T08:57:13.460Z,19.27
2018-09-22T08:59:42.119Z,19.41
2018-09-22T09:02:10.720Z,19.48
2018-09-22T09:04:39.311Z,19.82
2018-09-22T09:07:07.930Z,19.89
2018-09-22T09:09:36.527Z,20.15
2018-09-22T09:12:05.105Z,20.29
2018-09-22T09:14:33.739Z,20.27
2018-09-22T09:17:02.334Z,20.50
2018-09-22T09:19:30.944Z,20.71
2018-09-22T09:21:59.648Z,20.69
2018-09-22T09:24:28.224Z,20.96
2018-09-22T09:26:56.819Z,20.97
2018-09-22T09:29:25.456Z,20.84
2018-09-22T09:31:54.099Z,20.82
2018-09-22T09:34:22.672Z,20.65
2018-09-22T09:36:51.376Z,20.64
2018-09-22T09:39:19.936Z,20.38
2018-09-22T09:41:48.533Z,20.08
2018-09-22T09:44:17.147Z,20.35
2018-09-22T09:46:45.792Z,20.77
2018-09-22T09:49:14.435Z,20.55
2018-09-22T09:51:43.131Z,20.36
2018-09-22T09:54:11.720Z,20.08
2018-09-22T09:56:40.314Z,19.99
2018-09-22T09:59:09.057Z,20.45
2018-09-22T10:01:37.624Z,20.76
2018-09-22T10:04:06.211Z,21.09
2018-09-22T10:06:35.004Z,21.64
2018-09-22T10:09:03.932Z,22.15
2018-09-22T10:11:32.508Z,21.97
2018-09-22T10:14:01.175Z,22.37
2018-09-22T10:16:29.785Z,22.69
2018-09-22T10:18:58.364Z,23.42
2018-09-22T10:21:27.064Z,23.71
2018-09-22T10:23:55.671Z,23.84
2018-09-22T10:26:24.247Z,23.65
2018-09-22T10:28:52.888Z,24.10
2018-09-22T10:31:21.575Z,24.48
2018-09-22T10:33:50.156Z,24.58
2018-09-22T10:36:19.220Z,23.74
2018-09-22T10:38:47.808Z,24.54
2018-09-22T10:41:16.443Z,23.86
2018-09-22T10:43:45.152Z,24.33
2018-09-22T10:46:13.763Z,24.80
2018-09-22T10:48:42.344Z,24.52
2018-09-22T10:51:11.019Z,23.92
2018-09-22T10:53:39.614Z,23.92
2018-09-22T10:56:08.612Z,23.93
2018-09-22T10:58:37.704Z,23.32
2018-09-22T11:01:06.316Z,22.49
2018-09-22T11:03:34.893Z,22.57
2018-09-22T11:06:03.560Z,22.78
2018-09-22T11:08:32.185Z,22.82
2018-09-22T11:11:00.779Z,22.31
2018-09-22T11:13:29.427Z,22.37
2018-09-22T11:15:58.053Z,22.42
2018-09-22T11:18:26.659Z,21.90
2018-09-22T11:20:55.297Z,21.50
2018-09-22T11:23:23.924Z,21.73
2018-09-22T11:25:52.500Z,21.55
2018-09-22T11:28:21.671Z,21.26
2018-09-22T11:33:18.431Z,26.43
2018-09-22T11:35:47.047Z,28.32
2018-09-22T11:38:15.681Z,30.62
2018-09-22T11:40:44.664Z,32.90
2018-09-22T11:43:13.308Z,31.51
2018-09-22T11:45:41.922Z,28.35
2018-09-22T11:48:10.503Z,26.13
2018-09-22T11:50:39.111Z,24.63
2018-09-22T11:53:07.731Z,23.88
2018-09-22T11:55:36.316Z,24.41
2018-09-22T11:58:05.018Z,26.37
2018-09-22T12:00:33.620Z,27.24
2018-09-22T12:03:02.261Z,25.74
2018-09-22T12:05:30.904Z,24.35
2018-09-22T12:07:59.482Z,23.54
2018-09-22T12:10:28.097Z,22.63
2018-09-22T12:12:56.819Z,22.41
2018-09-22T12:15:25.462Z,22.20
2018-09-22T12:17:54.145Z,22.13
2018-09-22T12:20:22.769Z,21.94
2018-09-22T12:22:51.363Z,21.84
2018-09-22T12:25:19.972Z,21.65
2018-09-22T12:27:48.643Z,21.45
2018-09-22T12:30:17.247Z,21.54
2018-09-22T12:32:45.831Z,21.53
2018-09-22T12:35:14.453Z,21.46
2018-09-22T12:37:43.064Z,21.19
2018-09-22T12:40:11.672Z,21.38
2018-09-22T12:42:40.383Z,21.42
2018-09-22T12:45:08.976Z,21.43
2018-09-22T12:47:37.587Z,21.57
2018-09-22T12:50:06.238Z,21.69
2018-09-22T12:52:34.811Z,21.68
2018-09-22T12:55:03.434Z,21.81
2018-09-22T12:57:32.428Z,21.76
2018-09-22T13:00:01.070Z,21.76
2018-09-22T13:02:29.675Z,21.83
2018-09-22T13:04:58.371Z,21.62
2018-09-22T13:07:26.964Z,21.54
2018-09-22T13:09:55.552Z,21.65
2018-09-22T13:12:24.192Z,21.64
2018-09-22T13:14:52.801Z,21.64
2018-09-22T13:17:21.395Z,21.73
2018-09-22T13:19:50.012Z,21.64
2018-09-22T13:22:18.608Z,21.70
2018-09-22T13:24:47.551Z,21.61
2018-09-22T13:27:16.199Z,21.65
2018-09-22T13:29:44.814Z,21.64
2018-09-22T13:32:13.911Z,21.60
2018-09-22T13:34:42.674Z,21.56
2018-09-22T13:37:11.353Z,21.60
2018-09-22T13:39:39.931Z,21.71
2018-09-22T13:42:08.581Z,21.76
2018-09-22T13:44:37.178Z,21.70
2018-09-22T13:47:05.822Z,21.73
2018-09-22T13:49:34.464Z,21.57
2018-09-22T13:52:03.056Z,21.44
2018-09-22T13:54:31.644Z,21.44
2018-09-22T13:57:00.695Z,21.45
2018-09-22T13:59:29.320Z,21.58
2018-09-22T14:01:57.983Z,21.52
2018-09-22T14:04:26.593Z,21.51
2018-09-22T14:06:55.220Z,21.52
2018-09-22T14:09:23.792Z,21.55
2018-09-22T14:11:52.659Z,21.60
2018-09-22T14:14:21.243Z,21.45
2018-09-22T14:16:49.843Z,21.44
2018-09-22T14:19:18.892Z,21.48
2018-09-22T14:21:47.495Z,21.41
2018-09-22T14:24:16.101Z,21.45
2018-09-22T14:26:44.915Z,21.44
2018-09-22T14:29:13.496Z,21.37
2018-09-22T14:31:42.083Z,21.46
2018-09-22T14:34:10.891Z,21.51
2018-09-22T14:36:40.079Z,21.34
2018-09-22T14:39:08.836Z,21.21
2018-09-22T14:41:37.500Z,21.07
2018-09-22T14:44:06.707Z,20.91
2018-09-22T14:46:35.910Z,20.74
2018-09-22T14:49:04.551Z,20.76
2018-09-22T14:51:33.131Z,20.75
2018-09-22T14:54:01.701Z,20.89
2018-09-22T14:56:30.307Z,20.80
2018-09-22T14:58:58.908Z,20.77
2018-09-22T15:01:27.488Z,20.84
2018-09-22T15:03:56.199Z,20.78
2018-09-22T15:06:24.789Z,20.92
2018-09-22T15:08:53.359Z,21.01
2018-09-22T15:11:22.024Z,21.07
2018-09-22T15:13:50.593Z,20.99
2018-09-22T15:16:19.188Z,20.88
2018-09-22T15:18:47.843Z,20.94
2018-09-22T15:21:16.556Z,20.98
2018-09-22T15:23:45.182Z,21.09
2018-09-22T15:26:13.857Z,21.08
2018-09-22T15:28:42.963Z,21.07
2018-09-22T15:31:11.556Z,20.97
2018-09-22T15:33:40.196Z,20.91
2018-09-22T15:36:08.800Z,20.84
2018-09-22T15:38:37.508Z,20.66
2018-09-22T15:41:06.211Z,20.68
2018-09-22T15:43:34.825Z,20.59
2018-09-22T15:46:03.440Z,20.54
2018-09-22T15:48:32.102Z,20.48
2018-09-22T15:51:00.711Z,20.40
2018-09-22T15:53:29.339Z,20.40
2018-09-22T15:55:58.079Z,20.43
2018-09-22T15:58:26.941Z,20.35
2018-09-22T16:00:55.744Z,20.18
2018-09-22T16:03:24.344Z,20.22
2018-09-22T16:05:52.940Z,20.21
2018-09-22T16:08:21.548Z,20.09
2018-09-22T16:10:50.320Z,20.15
2018-09-22T16:13:18.920Z,20.13
2018-09-22T16:15:47.495Z,20.05
2018-09-22T16:18:16.224Z,20.03
2018-09-22T16:20:44.817Z,20.09
2018-09-22T16:23:14.097Z,20.10
2018-09-22T16:25:42.832Z,20.04
2018-09-22T16:28:11.535Z,19.97
2018-09-22T16:30:40.129Z,20.00
2018-09-22T16:33:08.850Z,20.03
2018-09-22T16:35:37.442Z,20.02
2018-09-22T16:38:06.020Z,20.01
2018-09-22T16:40:34.641Z,20.01
2018-09-22T16:43:04.198Z,20.00
2018-09-22T16:45:32.799Z,19.96
2018-09-22T16:48:01.488Z,19.91
2018-09-22T16:50:30.092Z,19.91
2018-09-22T16:52:58.700Z,19.91
2018-09-22T16:55:27.346Z,19.87
2018-09-22T16:57:55.927Z,19.84
2018-09-22T17:00:24.541Z,19.89
2018-09-22T17:02:53.520Z,19.84
2018-09-22T17:05:22.100Z,19.78
2018-09-22T17:07:50.707Z,19.69
2018-09-22T17:10:19.450Z,19.64
2018-09-22T17:12:48.205Z,19.60
2018-09-22T17:15:16.832Z,19.53
2018-09-22T17:17:45.992Z,19.52
2018-09-22T17:20:14.587Z,19.53
2018-09-22T17:22:43.185Z,19.45
2018-09-22T17:25:11.956Z,19.49
2018-09-22T17:27:40.567Z,19.47
2018-09-22T17:30:09.202Z,19.44
2018-09-22T17:32:37.893Z,19.37
2018-09-22T17:35:06.488Z,19.46
2018-09-22T17:37:35.083Z,19.47
2018-09-22T17:40:03.716Z,19.40
2018-09-22T17:42:32.333Z,19.36
2018-09-22T17:45:00.948Z,19.40
2018-09-22T17:47:29.793Z,19.36
2018-09-22T17:49:58.380Z,19.35
2018-09-22T17:52:26.968Z,19.39
2018-09-22T17:54:55.660Z,19.36
2018-09-22T17:57:24.284Z,19.37
2018-09-22T17:59:52.860Z,19.35
2018-09-22T18:02:21.591Z,19.34
2018-09-22T18:04:50.212Z,19.28
2018-09-22T18:07:18.838Z,19.24
2018-09-22T18:09:47.550Z,19.23
2018-09-22T18:12:16.213Z,19.25
2018-09-22T18:14:44.795Z,19.27
2018-09-22T18:17:13.506Z,19.16
2018-09-22T18:19:42.092Z,19.04
2018-09-22T18:22:10.813Z,19.03
2018-09-22T18:24:39.513Z,19.03
2018-09-22T18:27:08.096Z,19.06
2018-09-22T18:29:36.672Z,19.08
2018-09-22T18:32:05.548Z,19.07
2018-09-22T18:34:42.852Z,19.07
2018-09-22T18:37:11.805Z,19.08
2018-09-22T18:39:40.380Z,19.10
2018-09-22T18:42:09.079Z,19.11
2018-09-22T18:44:37.688Z,19.08
2018-09-22T18:47:06.508Z,18.99
2018-09-22T18:49:35.088Z,18.89
2018-09-22T18:52:03.707Z,18.88
2018-09-22T18:54:32.283Z,18.86
2018-09-22T18:57:00.875Z,18.84
2018-09-22T18:59:29.876Z,18.82
2018-09-22T19:01:58.492Z,18.85
2018-09-22T19:04:27.106Z,18.85
2018-09-22T19:06:55.829Z,18.85
2018-09-22T19:09:24.433Z,18.87
2018-09-22T19:11:53.076Z,18.75
2018-09-22T19:14:28.583Z,18.70
2018-09-22T19:16:59.950Z,18.68
2018-09-22T19:19:35.208Z,18.66
2018-09-22T19:22:08.680Z,18.66
2018-09-22T19:24:46.416Z,18.61
2018-09-22T19:27:21.306Z,18.47
2018-09-22T19:29:54.927Z,18.45
2018-09-22T19:32:29.648Z,18.48
2018-09-22T19:35:02.975Z,18.48
2018-09-22T19:37:35.216Z,18.44
2018-09-22T19:40:15.427Z,18.43
2018-09-22T19:43:00.251Z,18.38
2018-09-22T19:45:35.296Z,18.40
2018-09-22T19:48:10.210Z,18.40
2018-09-22T19:50:45.454Z,18.36
2018-09-22T19:53:14.020Z,18.27
2018-09-22T19:55:43.014Z,18.22
2018-09-22T19:58:11.868Z,18.19
2018-09-22T20:00:40.469Z,18.17
2018-09-22T20:03:09.052Z,18.18
2018-09-22T20:05:37.684Z,18.17
2018-09-22T20:08:06.333Z,18.19
2018-09-22T20:10:34.916Z,18.21
2018-09-22T20:13:03.929Z,18.27
2018-09-22T20:15:32.535Z,18.26
2018-09-22T20:18:01.140Z,18.25
2018-09-22T20:20:29.910Z,18.27
2018-09-22T20:22:58.511Z,18.28
2018-09-22T20:25:27.095Z,18.24
2018-09-22T20:27:55.727Z,18.24
2018-09-22T20:30:24.550Z,18.21
2018-09-22T20:32:53.188Z,18.22
2018-09-22T20:35:21.845Z,18.20
2018-09-22T20:37:50.443Z,18.20
2018-09-22T20:40:19.039Z,18.21
2018-09-22T20:42:47.995Z,18.21
2018-09-22T20:45:16.585Z,18.11
2018-09-22T20:47:45.536Z,18.07
2018-09-22T20:50:14.176Z,18.13
2018-09-22T20:52:42.768Z,18.17
2018-09-22T20:55:11.396Z,18.19
2018-09-22T20:57:40.100Z,18.08
2018-09-22T21:00:09.935Z,17.96
2018-09-22T21:02:39.169Z,17.90
2018-09-22T21:05:08.328Z,17.86
2018-09-22T21:07:37.572Z,17.85
2018-09-22T21:10:06.599Z,17.87
2018-09-22T21:12:35.363Z,17.89
2018-09-22T21:15:04.014Z,17.88
2018-09-22T21:17:32.651Z,17.81
2018-09-22T21:20:01.259Z,17.75
2018-09-22T21:22:30.932Z,17.65
2018-09-22T21:25:00.564Z,17.54
2018-09-22T21:27:29.190Z,17.49
2018-09-22T21:29:57.763Z,17.35
2018-09-22T21:32:28.321Z,17.29
2018-09-22T21:34:56.931Z,17.29
2018-09-22T21:37:26.869Z,17.26
2018-09-22T21:39:56.680Z,17.22
2018-09-22T21:42:25.378Z,17.19
2018-09-22T21:44:54.072Z,17.16
2018-09-22T21:47:23.237Z,17.14
2018-09-22T21:49:51.792Z,17.15
2018-09-22T21:52:20.462Z,17.14
2018-09-22T21:54:49.498Z,17.17
2018-09-22T21:57:18.124Z,17.14
2018-09-22T21:59:46.815Z,17.16
2018-09-22T22:02:15.634Z,17.11
2018-09-22T22:04:44.372Z,17.01
2018-09-22T22:07:13.006Z,16.94
2018-09-22T22:09:41.831Z,16.88
2018-09-22T22:12:10.428Z,16.78
2018-09-22T22:14:39.076Z,16.74
2018-09-22T22:17:07.811Z,16.71
2018-09-22T22:19:36.731Z,16.63
2018-09-22T22:22:05.331Z,16.64
2018-09-22T22:24:34.157Z,16.66
2018-09-22T22:27:02.763Z,16.66
2018-09-22T22:29:31.335Z,16.54
2018-09-22T22:31:59.943Z,16.54
2018-09-22T22:34:28.512Z,16.58
2018-09-22T22:36:57.124Z,16.60
2018-09-22T22:39:26.540Z,16.53
2018-09-22T22:41:55.211Z,16.57
2018-09-22T22:44:23.901Z,16.50
2018-09-22T22:46:52.612Z,16.53
2018-09-22T22:49:21.252Z,16.50
2018-09-22T22:51:49.877Z,16.48
2018-09-22T22:54:18.634Z,16.51
2018-09-22T22:56:47.200Z,16.43
2018-09-22T22:59:15.808Z,16.54
2018-09-22T23:01:44.428Z,16.48
2018-09-22T23:04:13.023Z,16.55
2018-09-22T23:06:41.866Z,16.55
2018-09-22T23:09:11.024Z,16.54
2018-09-22T23:11:39.676Z,16.65
2018-09-22T23:14:08.364Z,16.63
2018-09-22T23:16:36.971Z,16.59
2018-09-22T23:19:05.697Z,16.61
2018-09-22T23:21:34.346Z,16.64
2018-09-22T23:24:03.146Z,16.64
2018-09-22T23:26:31.924Z,16.62
2018-09-22T23:29:00.527Z,16.55
2018-09-22T23:31:29.256Z,16.61
2018-09-22T23:33:57.835Z,16.58
2018-09-22T23:36:26.419Z,16.65
2018-09-22T23:38:55.095Z,16.63
2018-09-22T23:41:23.777Z,16.62
2018-09-22T23:43:52.379Z,16.59
2018-09-22T23:46:20.977Z,16.48
2018-09-22T23:48:49.536Z,16.45
2018-09-22T23:51:18.140Z,16.38
2018-09-22T23:53:46.760Z,16.32
2018-09-22T23:56:15.536Z,16.30
2018-09-22T23:58:44.533Z,16.27
